createdAt,value
2024-03-12T00:07:02.907Z,7.57
2024-03-12T00:22:09.325Z,15.17
2024-03-12T00:37:11.419Z,15.80
2024-03-12T00:52:13.473Z,22.43
2024-03-12T01:07:17.791Z,34.80
2024-03-12T01:22:21.229Z,20.80
2024-03-12T01:37:27.230Z,16.70
2024-03-12T01:52:30.491Z,21.30
2024-03-12T02:07:32.717Z,15.13
2024-03-12T02:22:34.660Z,16.13
2024-03-12T02:37:36.866Z,21.93
2024-03-12T02:52:39.578Z,21.90
2024-03-12T03:07:43.203Z,22.17
2024-03-12T03:22:48.709Z,22.27
2024-03-12T03:37:50.907Z,18.50
2024-03-12T03:52:54.361Z,12.47
2024-03-12T04:07:56.437Z,15.07
2024-03-12T04:22:58.663Z,25.57
2024-03-12T04:38:04.001Z,24.87
2024-03-12T04:53:20.886Z,16.80
2024-03-12T05:08:27.459Z,20.10
2024-03-12T05:23:29.889Z,22.67
2024-03-12T05:38:31.800Z,16.27
2024-03-12T05:53:33.760Z,15.17
2024-03-12T06:08:36.798Z,13.50
2024-03-12T06:23:39.511Z,14.30
2024-03-12T06:38:42.435Z,12.03
2024-03-12T06:53:45.504Z,10.50
2024-03-12T07:08:48.017Z,11.17
2024-03-12T07:23:54.160Z,9.13
2024-03-12T07:38:58.174Z,11.70
2024-03-12T07:54:03.394Z,11.63
2024-03-12T08:09:05.589Z,11.53
2024-03-12T08:24:07.786Z,9.37
2024-03-12T08:39:12.625Z,12.50
2024-03-12T08:54:15.556Z,9.93
2024-03-12T09:09:17.801Z,6.83
2024-03-12T09:24:20.443Z,11.40
2024-03-12T09:39:29.377Z,6.07
2024-03-12T09:54:31.684Z,9.23
2024-03-12T10:09:37.188Z,6.17
2024-03-12T10:24:39.741Z,4.90
2024-03-12T10:39:43.432Z,5.20
2024-03-12T10:54:51.434Z,6.03
2024-03-12T11:10:01.014Z,4.73
2024-03-12T11:25:10.404Z,4.17
2024-03-12T11:40:41.014Z,5.07
2024-03-12T11:56:17.196Z,7.53
2024-03-12T12:11:19.417Z,4.43
2024-03-12T12:26:23.878Z,5.73
2024-03-12T12:41:36.356Z,4.87
2024-03-12T12:56:43.173Z,6.30
2024-03-12T13:11:46.417Z,7.37
2024-03-12T13:26:56.185Z,8.20
2024-03-12T13:41:58.164Z,7.93
2024-03-12T13:57:00.456Z,8.40
2024-03-12T14:12:03.229Z,12.40
2024-03-12T14:27:06.827Z,11.00
2024-03-12T14:42:08.853Z,7.40
2024-03-12T14:57:14.272Z,6.03
2024-03-12T15:12:17.525Z,8.60
2024-03-12T15:27:19.543Z,14.30
2024-03-12T15:42:21.491Z,8.40
2024-03-12T15:57:24.647Z,8.87
2024-03-12T16:12:26.773Z,7.43
2024-03-12T16:27:28.858Z,10.27
2024-03-12T16:42:32.319Z,5.67
2024-03-12T16:57:37.742Z,8.80
2024-03-12T17:12:41.654Z,7.53
2024-03-12T17:27:44.382Z,6.93
2024-03-12T17:42:48.785Z,11.63
2024-03-12T17:57:52.592Z,8.83
2024-03-12T18:12:56.085Z,7.10
2024-03-12T18:27:59.310Z,8.30
2024-03-12T18:43:08.870Z,10.77
2024-03-12T18:58:11.235Z,13.40
2024-03-12T19:13:13.813Z,13.67
2024-03-12T19:28:16.060Z,7.67
2024-03-12T19:43:18.357Z,12.20
2024-03-12T19:58:20.470Z,11.70
2024-03-12T20:13:22.765Z,14.43
2024-03-12T20:28:25.119Z,14.00
2024-03-12T20:43:29.633Z,10.40
2024-03-12T20:58:32.067Z,9.17
2024-03-12T21:13:36.240Z,13.13
2024-03-12T21:28:40.769Z,12.00
2024-03-12T21:43:42.703Z,15.07
2024-03-12T21:58:48.779Z,9.87
2024-03-12T22:13:51.621Z,15.07
2024-03-12T22:28:56.173Z,19.30
2024-03-12T22:44:01.244Z,11.10
2024-03-12T22:59:03.337Z,12.13
2024-03-12T23:14:06.169Z,9.93
2024-03-12T23:29:08.117Z,10.13
2024-03-12T23:44:11.436Z,7.97
2024-03-12T23:59:13.360Z,7.47
